KRKP/RKP METAR and TAF weather

Enter ICAO airport designator
Station Type Date Time Source
KRKP METAR 2021/05/17 23:00 UTC NOAA

KRKP 172300Z AUTO 11013KT 6SM BR BKN015 OVC020 27/24 A2981 RMK AO2 T02670244


Station Type Date Time Source
KRKP Decoded METAR 2021/05/17 23:00 UTC NOAA

ROCKPORT ARANSAS COUNTY AIRPORT , TX, United States (KRKP) 28-05N 97-03W 6M
May 17, 2021 - 07:00 PM EDT / 2021.05.17 2300 UTC
Wind: from the ESE (110 degrees) at 15 MPH (13 KT):0
Visibility: 6 mile(s):0
Sky conditions: overcast
Weather: mist
Temperature: 80.1 F (26.7 C)
Dew Point: 75.9 F (24.4 C)
Relative Humidity: 87%
Pressure (altimeter): 29.81 in. Hg (1009 hPa)
ob: KRKP 172300Z AUTO 11013KT 6SM BR BKN015 OVC020 27/24 A2981 RMK AO2 T02670244
cycle: 23

Station Type Date Time Source
KRKP TAF UTC NOAA

Error!

Example: see airport list